Main page
METAR-TAF:

METAR-TAF

Airports :

Wick Airport

Wick, Scotland

latitude: 58-27N, longitude: 003-05W, elevation: 39 m

Current weather observation

The report was made 14 minutes ago, at 04:20 UTC
Wind 2 kt from the Southwest
Temperature 10°C
Humidity 82%
Pressure 1000 hPa
Visibility 10 km or more

METAR: EGPC 160420Z AUTO 23002KT 9999 NCD 10/07 Q1000

Time: 05:34 (04:34 UTC)

Forecast

The report was made 1 hour and 32 minutes ago, at 03:02 UTC
Forecast valid from 16 at 03 UTC to 16 at 12 UTC
Wind 9 kt from the South/Southwest
Visibility 10 km or more
Few clouds at a height of 3500 ft
Probability 30% :
Temporary
from 16 at 11 UTC to 16 at 12 UTC
Visibility: 7000 m
rain showers

TAF: EGPC 160302Z 1603/1612 21009KT 9999 FEW035 PROB30 TEMPO 1611/1612 7000 SHRA

Weather observations and forecasts of more than 4000 airports (METAR and TAF reports).

The available stations are represented by yellow and red dots on the map.

Hover mouse over dot to see the name of the station.

Then click to see weather observations and forecasts.

To change the map : click on the green buttons with a black cross to zoom in, on the green button with a dash to zoom out, or on the green arrows for adjacent maps.


METAR-TAF: